UPS9787 KBOS-KPHL
Flight info
| Callsign | UPS9787 |
|---|---|
| Flight time | 0h 55m |
| Altitude | 36000 |
| Route | SSOXS7 SSOXS Q167 RIFLE Q439 BRIGS JIIMS4 |
| Aircraft | B77L/H-SDE1E2E3FGHIJ2J3J4J5M1RWXY/LB1D1 |
Departure
| Time | 2026-05-04 02:15 |
|---|---|
| Airport | Boston Logan International Airport (KBOS) |
Arrival
| Time | 2026-05-04 03:11 |
|---|---|
| Airport | Philadelphia International Airport (KPHL) |
| Time | Latitude | Longitude | Altitude | Speed | Heading |
|---|---|---|---|---|---|
| 2026-05-04 01:52 | 42.37267 | -71.02645 | 30 ft | 0 kts | 220° |
| 2026-05-04 02:03 | 42.37277 | -71.02635 | 21 ft | 2 kts | 215° |
| 2026-05-04 02:04 | 42.37291 | -71.02623 | 28 ft | 2 kts | 207° |
| 2026-05-04 02:04 | 42.37306 | -71.02615 | 29 ft | 2 kts | 191° |
| 2026-05-04 02:04 | 42.37323 | -71.02613 | 27 ft | 2 kts | 163° |
| 2026-05-04 02:04 | 42.37338 | -71.02623 | 28 ft | 2 kts | 140° |
| 2026-05-04 02:05 | 42.37345 | -71.02631 | 29 ft | 1 kts | 131° |
| 2026-05-04 02:05 | 42.37346 | -71.02634 | 29 ft | 0 kts | 130° |
| 2026-05-04 02:08 | 42.37346 | -71.02633 | 30 ft | 0 kts | 130° |
| 2026-05-04 02:08 | 42.37324 | -71.02599 | 30 ft | 15 kts | 130° |
| 2026-05-04 02:09 | 42.37228 | -71.02452 | 30 ft | 22 kts | 136° |
| 2026-05-04 02:09 | 42.37143 | -71.02287 | 30 ft | 21 kts | 91° |
| 2026-05-04 02:09 | 42.37226 | -71.02129 | 30 ft | 21 kts | 64° |
| 2026-05-04 02:09 | 42.37247 | -71.01953 | 30 ft | 19 kts | 60° |
| 2026-05-04 02:10 | 42.37265 | -71.01792 | 30 ft | 19 kts | 123° |
| 2026-05-04 02:10 | 42.37173 | -71.01659 | 30 ft | 20 kts | 136° |
| 2026-05-04 02:10 | 42.37058 | -71.01505 | 30 ft | 26 kts | 134° |
| 2026-05-04 02:10 | 42.36931 | -71.01335 | 30 ft | 26 kts | 135° |
| 2026-05-04 02:11 | 42.36805 | -71.01171 | 30 ft | 23 kts | 147° |
| 2026-05-04 02:11 | 42.36656 | -71.01179 | 30 ft | 22 kts | 198° |
| 2026-05-04 02:11 | 42.36513 | -71.01248 | 30 ft | 22 kts | 200° |
| 2026-05-04 02:11 | 42.36378 | -71.01313 | 30 ft | 17 kts | 198° |
| 2026-05-04 02:12 | 42.36298 | -71.01236 | 30 ft | 15 kts | 123° |
| 2026-05-04 02:12 | 42.36238 | -71.01081 | 30 ft | 25 kts | 114° |
| 2026-05-04 02:12 | 42.36163 | -71.00851 | 30 ft | 27 kts | 114° |
| 2026-05-04 02:12 | 42.36094 | -71.00616 | 30 ft | 27 kts | 109° |
| 2026-05-04 02:13 | 42.36036 | -71.00376 | 30 ft | 27 kts | 110° |
| 2026-05-04 02:13 | 42.35972 | -71.00143 | 30 ft | 27 kts | 115° |
| 2026-05-04 02:13 | 42.35856 | -70.99947 | 30 ft | 27 kts | 135° |
| 2026-05-04 02:13 | 42.35724 | -70.99770 | 30 ft | 27 kts | 135° |
| 2026-05-04 02:14 | 42.35590 | -70.99593 | 30 ft | 27 kts | 134° |
| 2026-05-04 02:14 | 42.35495 | -70.99430 | 30 ft | 18 kts | 103° |
| 2026-05-04 02:14 | 42.35521 | -70.99276 | 30 ft | 12 kts | 38° |
| 2026-05-04 02:14 | 42.35572 | -70.99311 | 30 ft | 13 kts | 322° |
| 2026-05-04 02:15 | 42.35682 | -70.99458 | 30 ft | 47 kts | 315° |
| 2026-05-04 02:15 | 42.36187 | -71.00133 | 27 ft | 155 kts | 314° |
| 2026-05-04 02:15 | 42.37049 | -71.01352 | 857 ft | 176 kts | 314° |
| 2026-05-04 02:15 | 42.37907 | -71.02479 | 2430 ft | 175 kts | 314° |
| 2026-05-04 02:16 | 42.38765 | -71.03785 | 2792 ft | 204 kts | 301° |
| 2026-05-04 02:16 | 42.39479 | -71.05588 | 3244 ft | 226 kts | 297° |
| 2026-05-04 02:16 | 42.40248 | -71.07478 | 4200 ft | 228 kts | 297° |
| 2026-05-04 02:16 | 42.40654 | -71.09557 | 5042 ft | 238 kts | 268° |
| 2026-05-04 02:17 | 42.40192 | -71.11718 | 6144 ft | 241 kts | 250° |
| 2026-05-04 02:17 | 42.39337 | -71.13706 | 6949 ft | 253 kts | 240° |
| 2026-05-04 02:17 | 42.38282 | -71.15633 | 7927 ft | 257 kts | 241° |
| 2026-05-04 02:17 | 42.37234 | -71.17600 | 8939 ft | 257 kts | 240° |
| 2026-05-04 02:18 | 42.35849 | -71.19257 | 9791 ft | 283 kts | 214° |
| 2026-05-04 02:18 | 42.33850 | -71.19874 | 10514 ft | 315 kts | 186° |
| 2026-05-04 02:18 | 42.32254 | -71.19537 | 10750 ft | 345 kts | 168° |
| 2026-05-04 02:18 | 42.29875 | -71.18328 | 10976 ft | 375 kts | 162° |
| 2026-05-04 02:19 | 42.27340 | -71.16977 | 11343 ft | 399 kts | 163° |
| 2026-05-04 02:19 | 42.24811 | -71.15343 | 11942 ft | 412 kts | 148° |
| 2026-05-04 02:19 | 42.22610 | -71.12798 | 12647 ft | 420 kts | 138° |
| 2026-05-04 02:19 | 42.20474 | -71.10134 | 13621 ft | 424 kts | 139° |
| 2026-05-04 02:20 | 42.18257 | -71.07483 | 14596 ft | 426 kts | 140° |
| 2026-05-04 02:20 | 42.16004 | -71.04851 | 15473 ft | 431 kts | 141° |
| 2026-05-04 02:20 | 42.13670 | -71.02286 | 16299 ft | 435 kts | 145° |
| 2026-05-04 02:20 | 42.11179 | -70.99908 | 17132 ft | 440 kts | 148° |
| 2026-05-04 02:21 | 42.08650 | -70.97630 | 17959 ft | 444 kts | 149° |
| 2026-05-04 02:21 | 42.06054 | -70.95304 | 18722 ft | 449 kts | 149° |
| 2026-05-04 02:21 | 42.03452 | -70.92943 | 19457 ft | 453 kts | 148° |
| 2026-05-04 02:21 | 42.00834 | -70.90531 | 20202 ft | 457 kts | 148° |
| 2026-05-04 02:22 | 41.98202 | -70.88085 | 20904 ft | 462 kts | 148° |
| 2026-05-04 02:22 | 41.95567 | -70.85626 | 21600 ft | 466 kts | 148° |
| 2026-05-04 02:22 | 41.92888 | -70.83128 | 22286 ft | 471 kts | 148° |
| 2026-05-04 02:22 | 41.90188 | -70.80619 | 22968 ft | 475 kts | 149° |
| 2026-05-04 02:23 | 41.87344 | -70.78374 | 23469 ft | 471 kts | 163° |
| 2026-05-04 02:23 | 41.84176 | -70.77402 | 23924 ft | 464 kts | 182° |
| 2026-05-04 02:23 | 41.81019 | -70.77634 | 24541 ft | 455 kts | 195° |
| 2026-05-04 02:23 | 41.77998 | -70.78734 | 25155 ft | 445 kts | 209° |
| 2026-05-04 02:24 | 41.75291 | -70.80675 | 25628 ft | 441 kts | 216° |
| 2026-05-04 02:24 | 41.72621 | -70.82787 | 26036 ft | 448 kts | 216° |
| 2026-05-04 02:24 | 41.69940 | -70.84887 | 26597 ft | 451 kts | 216° |
| 2026-05-04 02:24 | 41.67205 | -70.86983 | 27196 ft | 453 kts | 215° |
| 2026-05-04 02:25 | 41.64439 | -70.89066 | 27747 ft | 457 kts | 215° |
| 2026-05-04 02:25 | 41.61644 | -70.91152 | 28246 ft | 461 kts | 215° |
| 2026-05-04 02:25 | 41.58865 | -70.93235 | 28721 ft | 463 kts | 216° |
| 2026-05-04 02:25 | 41.56221 | -70.95696 | 29210 ft | 458 kts | 225° |
| 2026-05-04 02:26 | 41.53922 | -70.98556 | 29906 ft | 451 kts | 231° |
| 2026-05-04 02:26 | 41.51874 | -71.01699 | 30516 ft | 444 kts | 238° |
| 2026-05-04 02:26 | 41.50138 | -71.05092 | 31009 ft | 442 kts | 241° |
| 2026-05-04 02:26 | 41.48454 | -71.08533 | 31449 ft | 443 kts | 241° |
| 2026-05-04 02:27 | 41.46767 | -71.11984 | 31881 ft | 443 kts | 240° |
| 2026-05-04 02:27 | 41.45070 | -71.15427 | 31907 ft | 445 kts | 240° |
| 2026-05-04 02:27 | 41.41672 | -71.22227 | 31919 ft | 441 kts | 240° |
| 2026-05-04 02:28 | 41.38251 | -71.29029 | 31922 ft | 441 kts | 240° |
| 2026-05-04 02:28 | 41.34819 | -71.35836 | 31938 ft | 441 kts | 240° |
| 2026-05-04 02:29 | 41.31395 | -71.42600 | 31960 ft | 441 kts | 240° |
| 2026-05-04 02:29 | 41.27973 | -71.49349 | 31959 ft | 441 kts | 240° |
| 2026-05-04 02:30 | 41.24527 | -71.56133 | 31962 ft | 441 kts | 240° |
| 2026-05-04 02:30 | 41.21089 | -71.62889 | 31964 ft | 441 kts | 240° |
| 2026-05-04 02:31 | 41.17671 | -71.69593 | 31959 ft | 440 kts | 240° |
| 2026-05-04 02:31 | 41.14233 | -71.76318 | 31965 ft | 440 kts | 240° |
| 2026-05-04 02:32 | 41.10795 | -71.83048 | 31970 ft | 439 kts | 240° |
| 2026-05-04 02:32 | 41.07362 | -71.89768 | 31976 ft | 439 kts | 240° |
| 2026-05-04 02:33 | 41.03975 | -71.96449 | 31976 ft | 438 kts | 242° |
| 2026-05-04 02:33 | 41.01207 | -72.03598 | 31970 ft | 434 kts | 249° |
| 2026-05-04 02:34 | 40.98698 | -72.10838 | 31971 ft | 434 kts | 248° |
| 2026-05-04 02:34 | 40.96144 | -72.18093 | 31972 ft | 434 kts | 248° |
| 2026-05-04 02:35 | 40.93585 | -72.25296 | 31973 ft | 435 kts | 246° |
| 2026-05-04 02:35 | 40.90307 | -72.32108 | 31970 ft | 440 kts | 237° |
| 2026-05-04 02:36 | 40.86281 | -72.38176 | 31965 ft | 444 kts | 229° |
| 2026-05-04 02:36 | 40.81851 | -72.43903 | 31974 ft | 443 kts | 230° |
| 2026-05-04 02:37 | 40.77272 | -72.49326 | 31983 ft | 446 kts | 224° |
| 2026-05-04 02:37 | 40.72441 | -72.54481 | 31975 ft | 445 kts | 225° |
| 2026-05-04 02:38 | 40.67736 | -72.59772 | 31966 ft | 440 kts | 230° |
| 2026-05-04 02:38 | 40.63431 | -72.65459 | 31978 ft | 439 kts | 230° |
| 2026-05-04 02:39 | 40.59125 | -72.71123 | 31973 ft | 439 kts | 230° |
| 2026-05-04 02:39 | 40.54785 | -72.76791 | 31974 ft | 438 kts | 230° |
| 2026-05-04 02:40 | 40.50446 | -72.82366 | 31971 ft | 439 kts | 229° |
| 2026-05-04 02:40 | 40.45934 | -72.87767 | 31975 ft | 438 kts | 228° |
| 2026-05-04 02:41 | 40.41433 | -72.93127 | 31982 ft | 437 kts | 228° |
| 2026-05-04 02:41 | 40.36940 | -72.98525 | 31987 ft | 436 kts | 228° |
| 2026-05-04 02:42 | 40.32480 | -73.03881 | 31988 ft | 435 kts | 229° |
| 2026-05-04 02:42 | 40.28052 | -73.09230 | 31988 ft | 434 kts | 229° |
| 2026-05-04 02:43 | 40.23608 | -73.14593 | 31990 ft | 432 kts | 229° |
| 2026-05-04 02:43 | 40.19168 | -73.19908 | 31995 ft | 431 kts | 229° |
| 2026-05-04 02:44 | 40.14771 | -73.25166 | 32000 ft | 430 kts | 229° |
| 2026-05-04 02:44 | 40.10373 | -73.30413 | 32005 ft | 429 kts | 229° |
| 2026-05-04 02:45 | 40.05944 | -73.35647 | 32011 ft | 428 kts | 229° |
| 2026-05-04 02:45 | 40.01524 | -73.40862 | 32012 ft | 426 kts | 229° |
| 2026-05-04 02:46 | 39.97164 | -73.46001 | 32006 ft | 421 kts | 229° |
| 2026-05-04 02:46 | 39.92831 | -73.51104 | 32009 ft | 417 kts | 229° |
| 2026-05-04 02:47 | 39.90719 | -73.53643 | 31988 ft | 405 kts | 232° |
| 2026-05-04 02:47 | 39.88841 | -73.56259 | 31595 ft | 395 kts | 237° |
| 2026-05-04 02:47 | 39.87137 | -73.59022 | 31168 ft | 389 kts | 238° |
| 2026-05-04 02:47 | 39.85440 | -73.61748 | 30652 ft | 385 kts | 238° |
| 2026-05-04 02:48 | 39.83746 | -73.64440 | 30128 ft | 383 kts | 238° |
| 2026-05-04 02:48 | 39.82061 | -73.67107 | 29520 ft | 380 kts | 238° |
| 2026-05-04 02:48 | 39.80390 | -73.69751 | 28967 ft | 376 kts | 238° |
| 2026-05-04 02:48 | 39.78736 | -73.72369 | 28418 ft | 372 kts | 238° |
| 2026-05-04 02:49 | 39.77101 | -73.74958 | 27892 ft | 369 kts | 238° |
| 2026-05-04 02:49 | 39.75474 | -73.77537 | 27356 ft | 370 kts | 238° |
| 2026-05-04 02:49 | 39.73848 | -73.80117 | 26835 ft | 376 kts | 237° |
| 2026-05-04 02:49 | 39.72154 | -73.82806 | 26274 ft | 382 kts | 237° |
| 2026-05-04 02:50 | 39.70487 | -73.85440 | 25748 ft | 380 kts | 237° |
| 2026-05-04 02:50 | 39.68809 | -73.88083 | 25205 ft | 377 kts | 237° |
| 2026-05-04 02:50 | 39.67145 | -73.90704 | 24693 ft | 374 kts | 237° |
| 2026-05-04 02:50 | 39.65498 | -73.93300 | 24179 ft | 371 kts | 237° |
| 2026-05-04 02:51 | 39.63858 | -73.95884 | 23676 ft | 369 kts | 237° |
| 2026-05-04 02:51 | 39.62244 | -73.98423 | 23094 ft | 366 kts | 237° |
| 2026-05-04 02:51 | 39.60626 | -74.00967 | 22570 ft | 363 kts | 237° |
| 2026-05-04 02:51 | 39.59023 | -74.03488 | 22069 ft | 360 kts | 237° |
| 2026-05-04 02:52 | 39.57971 | -74.05144 | 21738 ft | 358 kts | 237° |
| 2026-05-04 02:52 | 39.56396 | -74.07620 | 21256 ft | 355 kts | 236° |
| 2026-05-04 02:52 | 39.54830 | -74.10079 | 20777 ft | 352 kts | 236° |
| 2026-05-04 02:52 | 39.53106 | -74.13503 | 20152 ft | 335 kts | 252° |
| 2026-05-04 02:53 | 39.52637 | -74.15435 | 19846 ft | 330 kts | 260° |
| 2026-05-04 02:53 | 39.52398 | -74.18327 | 19393 ft | 325 kts | 271° |
| 2026-05-04 02:53 | 39.52442 | -74.21251 | 18956 ft | 324 kts | 273° |
| 2026-05-04 02:53 | 39.52520 | -74.24204 | 18489 ft | 330 kts | 273° |
| 2026-05-04 02:54 | 39.52601 | -74.27189 | 17996 ft | 341 kts | 273° |
| 2026-05-04 02:54 | 39.52679 | -74.30294 | 17432 ft | 345 kts | 273° |
| 2026-05-04 02:54 | 39.52748 | -74.33406 | 16919 ft | 344 kts | 272° |
| 2026-05-04 02:54 | 39.52811 | -74.36500 | 16423 ft | 341 kts | 272° |
| 2026-05-04 02:55 | 39.52921 | -74.42540 | 15506 ft | 334 kts | 272° |
| 2026-05-04 02:55 | 39.52973 | -74.45550 | 15052 ft | 331 kts | 272° |
| 2026-05-04 02:55 | 39.53023 | -74.48488 | 14629 ft | 328 kts | 272° |
| 2026-05-04 02:56 | 39.53072 | -74.51428 | 14163 ft | 325 kts | 272° |
| 2026-05-04 02:56 | 39.53119 | -74.54345 | 13718 ft | 323 kts | 272° |
| 2026-05-04 02:56 | 39.53165 | -74.57244 | 13246 ft | 320 kts | 272° |
| 2026-05-04 02:56 | 39.53210 | -74.60132 | 12797 ft | 317 kts | 272° |
| 2026-05-04 02:57 | 39.53254 | -74.62943 | 12363 ft | 315 kts | 273° |
| 2026-05-04 02:57 | 39.53298 | -74.65790 | 11941 ft | 315 kts | 273° |
| 2026-05-04 02:57 | 39.53342 | -74.68638 | 11518 ft | 318 kts | 273° |
| 2026-05-04 02:57 | 39.53385 | -74.71510 | 11083 ft | 320 kts | 273° |
| 2026-05-04 02:58 | 39.53428 | -74.74426 | 10859 ft | 326 kts | 273° |
| 2026-05-04 02:58 | 39.53471 | -74.77336 | 10671 ft | 319 kts | 273° |
| 2026-05-04 02:58 | 39.53514 | -74.80127 | 10522 ft | 307 kts | 274° |
| 2026-05-04 02:58 | 39.53555 | -74.82818 | 10369 ft | 285 kts | 274° |
| 2026-05-04 02:59 | 39.53593 | -74.85297 | 10257 ft | 267 kts | 274° |
| 2026-05-04 02:59 | 39.53630 | -74.87638 | 10142 ft | 258 kts | 274° |
| 2026-05-04 02:59 | 39.53666 | -74.89961 | 10070 ft | 259 kts | 274° |
| 2026-05-04 02:59 | 39.53707 | -74.92337 | 9846 ft | 267 kts | 276° |
| 2026-05-04 03:00 | 39.54230 | -74.94595 | 9454 ft | 262 kts | 307° |
| 2026-05-04 03:00 | 39.55583 | -74.96068 | 9160 ft | 257 kts | 334° |
| 2026-05-04 03:00 | 39.57277 | -74.96740 | 8804 ft | 255 kts | 349° |
| 2026-05-04 03:00 | 39.58880 | -74.96795 | 8403 ft | 257 kts | 1° |
| 2026-05-04 03:01 | 39.60512 | -74.96581 | 8376 ft | 248 kts | 3° |
| 2026-05-04 03:01 | 39.62239 | -74.96309 | 8367 ft | 253 kts | 3° |
| 2026-05-04 03:01 | 39.64045 | -74.96027 | 8101 ft | 266 kts | 3° |
| 2026-05-04 03:01 | 39.65855 | -74.95749 | 7762 ft | 260 kts | 3° |
| 2026-05-04 03:02 | 39.67618 | -74.95483 | 7459 ft | 247 kts | 2° |
| 2026-05-04 03:02 | 39.69337 | -74.95235 | 7200 ft | 255 kts | 2° |
| 2026-05-04 03:02 | 39.71127 | -74.94981 | 6908 ft | 260 kts | 2° |
| 2026-05-04 03:02 | 39.72930 | -74.94727 | 6603 ft | 259 kts | 1° |
| 2026-05-04 03:03 | 39.74690 | -74.94477 | 6259 ft | 248 kts | 1° |
| 2026-05-04 03:03 | 39.76406 | -74.94238 | 5484 ft | 247 kts | 1° |
| 2026-05-04 03:03 | 39.78152 | -74.93998 | 4943 ft | 251 kts | 2° |
| 2026-05-04 03:03 | 39.79846 | -74.93762 | 4416 ft | 246 kts | 2° |
| 2026-05-04 03:04 | 39.81579 | -74.93523 | 3860 ft | 252 kts | 2° |
| 2026-05-04 03:04 | 39.83279 | -74.93351 | 3471 ft | 235 kts | 351° |
| 2026-05-04 03:04 | 39.84740 | -74.93962 | 3125 ft | 216 kts | 330° |
| 2026-05-04 03:04 | 39.86137 | -74.94807 | 3026 ft | 225 kts | 332° |
| 2026-05-04 03:05 | 39.87579 | -74.95632 | 3015 ft | 223 kts | 332° |
| 2026-05-04 03:05 | 39.88947 | -74.96416 | 2991 ft | 210 kts | 332° |
| 2026-05-04 03:05 | 39.90222 | -74.97157 | 2990 ft | 189 kts | 327° |
| 2026-05-04 03:05 | 39.91109 | -74.98256 | 3021 ft | 171 kts | 298° |
| 2026-05-04 03:06 | 39.91452 | -74.99713 | 2998 ft | 168 kts | 269° |
| 2026-05-04 03:06 | 39.91364 | -75.01238 | 3003 ft | 171 kts | 265° |
| 2026-05-04 03:06 | 39.91212 | -75.02786 | 3000 ft | 172 kts | 264° |
| 2026-05-04 03:06 | 39.91036 | -75.04317 | 2842 ft | 175 kts | 261° |
| 2026-05-04 03:07 | 39.90784 | -75.05825 | 2601 ft | 164 kts | 258° |
| 2026-05-04 03:07 | 39.90521 | -75.07193 | 2419 ft | 146 kts | 257° |
| 2026-05-04 03:07 | 39.90273 | -75.08448 | 2221 ft | 140 kts | 257° |
| 2026-05-04 03:07 | 39.90027 | -75.09689 | 2050 ft | 144 kts | 257° |
| 2026-05-04 03:08 | 39.89780 | -75.10938 | 1867 ft | 144 kts | 257° |
| 2026-05-04 03:08 | 39.89530 | -75.12204 | 1630 ft | 144 kts | 256° |
| 2026-05-04 03:08 | 39.89279 | -75.13464 | 1418 ft | 144 kts | 256° |
| 2026-05-04 03:08 | 39.89031 | -75.14714 | 1227 ft | 144 kts | 256° |
| 2026-05-04 03:09 | 39.88783 | -75.15961 | 1039 ft | 146 kts | 255° |
| 2026-05-04 03:09 | 39.88528 | -75.17245 | 852 ft | 147 kts | 255° |
| 2026-05-04 03:09 | 39.88270 | -75.18536 | 666 ft | 148 kts | 255° |
| 2026-05-04 03:09 | 39.88014 | -75.19841 | 441 ft | 149 kts | 255° |
| 2026-05-04 03:10 | 39.87754 | -75.21125 | 236 ft | 147 kts | 255° |
| 2026-05-04 03:10 | 39.87497 | -75.22408 | 85 ft | 146 kts | 254° |
| 2026-05-04 03:10 | 39.87278 | -75.23517 | 28 ft | 72 kts | 253° |
| 2026-05-04 03:10 | 39.87162 | -75.24092 | 28 ft | 61 kts | 256° |
| 2026-05-04 03:11 | 39.87078 | -75.24503 | 32 ft | 66 kts | 255° |
| 2026-05-04 03:11 | 39.87011 | -75.24860 | 27 ft | 2 kts | 264° |
| 2026-05-04 03:11 | 39.87005 | -75.24934 | 27 ft | 22 kts | 264° |
| 2026-05-04 03:11 | 39.87030 | -75.25192 | 30 ft | 19 kts | 287° |
| 2026-05-04 03:12 | 39.87032 | -75.25203 | 30 ft | 0 kts | 287° |
| 2026-05-04 03:13 | 39.87039 | -75.25239 | 28 ft | 14 kts | 278° |
| 2026-05-04 03:13 | 39.87014 | -75.25431 | 30 ft | 21 kts | 278° |
| 2026-05-04 03:13 | 39.87125 | -75.25539 | 26 ft | 21 kts | 342° |
| 2026-05-04 03:13 | 39.87167 | -75.25555 | 26 ft | 0 kts | 344° |